Time,TemperatureF,DewpointF,PressureIn,WindDirection,WindDirectionDegrees,WindSpeedMPH,WindSpeedGustMPH,Humidity,HourlyPrecipIn,Conditions,Clouds,dailyrainin,SoftwareType,DateUTC
2013-03-04 00:00:00,23.1,19.0,30.12,NW,319,0.0,0.0,84,0.00,,---,0.00,VWS V14.01,2013-03-04 05:00:00,
2013-03-04 00:05:00,23.1,19.0,30.12,NW,319,0.0,0.0,84,0.00,,---,0.00,VWS V14.01,2013-03-04 05:05:00,
2013-03-04 00:10:00,23.0,18.9,30.12,NW,319,0.0,0.0,84,0.00,,---,0.00,VWS V14.01,2013-03-04 05:10:00,
2013-03-04 00:15:00,22.9,18.8,30.11,NW,319,0.0,0.0,84,0.00,,---,0.00,VWS V14.01,2013-03-04 05:15:00,
2013-03-04 00:20:00,24.5,18.9,30.11,NW,319,0.0,0.0,79,0.00,,---,0.00,VWS V14.01,2013-03-04 05:20:00,
2013-03-04 00:21:00,22.9,19.1,30.12,NW,319,0.0,0.0,85,0.00,,---,0.00,VWS V14.01,2013-03-04 05:21:00,
2013-03-04 00:25:00,24.4,19.1,30.11,NW,319,0.0,0.0,80,0.00,,---,0.00,VWS V14.01,2013-03-04 05:25:00,
2013-03-04 00:26:00,22.9,19.1,30.12,NW,319,0.0,0.0,85,0.00,,---,0.00,VWS V14.01,2013-03-04 05:26:00,
2013-03-04 00:30:00,24.2,18.9,30.11,NW,319,0.0,0.0,80,0.00,,---,0.00,VWS V14.01,2013-03-04 05:30:00,
2013-03-04 00:31:00,22.8,19.0,30.12,NW,319,0.0,0.0,85,0.00,,---,0.00,VWS V14.01,2013-03-04 05:31:00,
2013-03-04 00:35:00,24.1,19.1,30.11,NW,319,0.0,0.0,81,0.00,,---,0.00,VWS V14.01,2013-03-04 05:35:00,
2013-03-04 00:36:00,22.8,19.0,30.13,NW,319,0.0,0.0,85,0.00,,---,0.00,VWS V14.01,2013-03-04 05:36:00,
2013-03-04 00:40:00,23.9,18.9,30.11,NW,319,0.0,0.0,81,0.00,,---,0.00,VWS V14.01,2013-03-04 05:40:00,
2013-03-04 00:41:00,22.7,18.9,30.13,NW,319,0.0,0.0,85,0.00,,---,0.00,VWS V14.01,2013-03-04 05:41:00,
2013-03-04 00:45:00,23.8,18.8,30.11,NW,319,0.0,0.0,81,0.00,,---,0.00,VWS V14.01,2013-03-04 05:45:00,
2013-03-04 00:46:00,22.7,18.9,30.13,NW,319,0.0,0.0,85,0.00,,---,0.00,VWS V14.01,2013-03-04 05:46:00,
2013-03-04 00:50:00,23.7,19.0,30.11,NW,319,0.0,0.0,82,0.00,,---,0.00,VWS V14.01,2013-03-04 05:50:00,
2013-03-04 00:51:00,22.6,18.8,30.13,NW,319,0.0,0.0,85,0.00,,---,0.00,VWS V14.01,2013-03-04 05:51:00,
2013-03-04 00:55:00,23.6,18.9,30.11,NW,319,0.0,0.0,82,0.00,,---,0.00,VWS V14.01,2013-03-04 05:55:00,
2013-03-04 00:56:00,22.6,19.0,30.13,NW,319,0.0,0.0,86,0.00,,---,0.00,VWS V14.01,2013-03-04 05:56:00,
2013-03-04 01:00:00,23.4,18.7,30.12,NW,319,0.0,0.0,82,0.00,,---,0.00,VWS V14.01,2013-03-04 06:00:00,
2013-03-04 01:01:00,22.5,19.0,30.13,NW,319,0.0,0.0,86,0.00,,---,0.00,VWS V14.01,2013-03-04 06:01:00,
2013-03-04 01:05:00,23.4,19.0,30.12,NW,319,0.0,0.0,83,0.00,,---,0.00,VWS V14.01,2013-03-04 06:05:00,
2013-03-04 01:06:00,22.4,18.9,30.13,NW,319,0.0,0.0,86,0.00,,---,0.00,VWS V14.01,2013-03-04 06:06:00,
2013-03-04 01:10:00,23.4,19.0,30.12,NW,319,0.0,0.0,83,0.00,,---,0.00,VWS V14.01,2013-03-04 06:10:00,
2013-03-04 01:11:00,22.4,18.9,30.13,NW,319,0.0,0.0,86,0.00,,---,0.00,VWS V14.01,2013-03-04 06:11:00,
2013-03-04 01:15:00,23.3,18.9,30.12,NW,319,0.0,0.0,83,0.00,,---,0.00,VWS V14.01,2013-03-04 06:15:00,
2013-03-04 01:16:00,22.3,19.0,30.13,NW,319,0.0,0.0,87,0.00,,---,0.00,VWS V14.01,2013-03-04 06:16:00,
2013-03-04 01:20:00,23.2,18.8,30.12,NW,319,0.0,0.0,83,0.00,,---,0.00,VWS V14.01,2013-03-04 06:20:00,
2013-03-04 01:21:00,22.5,19.2,30.13,NW,319,0.0,0.0,87,0.00,,---,0.00,VWS V14.01,2013-03-04 06:21:00,
2013-03-04 01:25:00,23.1,18.7,30.12,NW,319,0.0,0.0,83,0.00,,---,0.00,VWS V14.01,2013-03-04 06:25:00,
2013-03-04 01:26:00,22.5,19.2,30.13,NW,319,0.0,0.0,87,0.00,,---,0.00,VWS V14.01,2013-03-04 06:26:00,
2013-03-04 01:30:00,23.1,19.0,30.12,NW,319,0.0,0.0,84,0.00,,---,0.00,VWS V14.01,2013-03-04 06:30:00,
2013-03-04 01:31:00,22.5,19.2,30.14,NW,319,0.0,0.0,87,0.00,,---,0.00,VWS V14.01,2013-03-04 06:31:00,
2013-03-04 01:35:00,23.1,19.0,30.12,NW,319,0.0,0.0,84,0.00,,---,0.00,VWS V14.01,2013-03-04 06:35:00,
2013-03-04 01:36:00,22.5,19.2,30.14,NW,319,0.0,0.0,87,0.00,,---,0.00,VWS V14.01,2013-03-04 06:36:00,
2013-03-04 01:40:00,23.0,18.9,30.12,NW,319,0.0,0.0,84,0.00,,---,0.00,VWS V14.01,2013-03-04 06:40:00,
2013-03-04 01:41:00,22.3,19.0,30.14,NW,319,0.0,0.0,87,0.00,,---,0.00,VWS V14.01,2013-03-04 06:41:00,
2013-03-04 01:45:00,22.9,18.8,30.11,NW,319,0.0,0.0,84,0.00,,---,0.00,VWS V14.01,2013-03-04 06:45:00,
2013-03-04 01:46:00,22.3,19.0,30.14,NW,319,0.0,0.0,87,0.00,,---,0.00,VWS V14.01,2013-03-04 06:46:00,
2013-03-04 01:50:00,22.9,19.1,30.11,NW,319,0.0,0.0,85,0.00,,---,0.00,VWS V14.01,2013-03-04 06:50:00,
2013-03-04 01:51:00,22.1,18.8,30.14,NW,319,0.0,0.0,87,0.00,,---,0.00,VWS V14.01,2013-03-04 06:51:00,
2013-03-04 01:55:00,22.9,19.1,30.12,NW,319,0.0,0.0,85,0.00,,---,0.00,VWS V14.01,2013-03-04 06:55:00,
2013-03-04 01:56:00,22.0,18.7,30.14,NW,319,0.0,0.0,87,0.00,,---,0.00,VWS V14.01,2013-03-04 06:56:00,
2013-03-04 02:00:00,22.9,19.1,30.12,NW,319,0.0,0.0,85,0.00,,---,0.00,VWS V14.01,2013-03-04 07:00:00,
2013-03-04 02:01:00,22.0,19.0,30.15,NW,319,0.0,0.0,88,0.00,,---,0.00,VWS V14.01,2013-03-04 07:01:00,
2013-03-04 02:05:00,22.8,19.0,30.12,NW,319,0.0,0.0,85,0.00,,---,0.00,VWS V14.01,2013-03-04 07:05:00,
2013-03-04 02:06:00,21.9,18.6,30.15,NW,319,0.0,0.0,87,0.00,,---,0.00,VWS V14.01,2013-03-04 07:06:00,
2013-03-04 02:10:00,22.7,18.9,30.13,NW,319,0.0,0.0,85,0.00,,---,0.00,VWS V14.01,2013-03-04 07:10:00,
2013-03-04 02:11:00,21.7,18.4,30.15,NW,319,0.0,0.0,87,0.00,,---,0.00,VWS V14.01,2013-03-04 07:11:00,
2013-03-04 02:15:00,22.7,18.9,30.13,NW,319,0.0,0.0,85,0.00,,---,0.00,VWS V14.01,2013-03-04 07:15:00,
2013-03-04 02:16:00,21.7,18.4,30.15,NW,319,0.0,0.0,87,0.00,,---,0.00,VWS V14.01,2013-03-04 07:16:00,
2013-03-04 02:20:00,22.7,18.9,30.13,NW,319,0.0,0.0,85,0.00,,---,0.00,VWS V14.01,2013-03-04 07:20:00,
2013-03-04 02:21:00,21.7,18.7,30.14,NW,319,0.0,0.0,88,0.00,,---,0.00,VWS V14.01,2013-03-04 07:21:00,
2013-03-04 02:25:00,22.6,19.0,30.13,NW,319,0.0,0.0,86,0.00,,---,0.00,VWS V14.01,2013-03-04 07:25:00,
2013-03-04 02:26:00,21.7,18.7,30.14,NW,319,0.0,0.0,88,0.00,,---,0.00,VWS V14.01,2013-03-04 07:26:00,
2013-03-04 02:30:00,22.5,19.0,30.13,NW,319,0.0,0.0,86,0.00,,---,0.00,VWS V14.01,2013-03-04 07:30:00,
2013-03-04 02:31:00,21.7,18.7,30.14,NW,319,0.0,0.0,88,0.00,,---,0.00,VWS V14.01,2013-03-04 07:31:00,
2013-03-04 02:35:00,22.5,19.0,30.13,NW,319,0.0,0.0,86,0.00,,---,0.00,VWS V14.01,2013-03-04 07:35:00,
2013-03-04 02:36:00,21.6,18.6,30.14,NW,319,0.0,0.0,88,0.00,,---,0.00,VWS V14.01,2013-03-04 07:36:00,
2013-03-04 02:40:00,22.4,18.9,30.13,NW,319,0.0,0.0,86,0.00,,---,0.00,VWS V14.01,2013-03-04 07:40:00,
2013-03-04 02:41:00,21.6,18.6,30.14,NW,319,0.0,0.0,88,0.00,,---,0.00,VWS V14.01,2013-03-04 07:41:00,
2013-03-04 02:45:00,22.3,18.8,30.13,NW,319,0.0,0.0,86,0.00,,---,0.00,VWS V14.01,2013-03-04 07:45:00,
2013-03-04 02:46:00,21.5,18.5,30.14,NW,319,0.0,0.0,88,0.00,,---,0.00,VWS V14.01,2013-03-04 07:46:00,
2013-03-04 02:50:00,22.5,19.2,30.13,NW,319,0.0,0.0,87,0.00,,---,0.00,VWS V14.01,2013-03-04 07:50:00,
2013-03-04 02:51:00,21.5,18.5,30.14,NW,319,0.0,0.0,88,0.00,,---,0.00,VWS V14.01,2013-03-04 07:51:00,
2013-03-04 02:55:00,22.5,19.2,30.13,NW,319,0.0,0.0,87,0.00,,---,0.00,VWS V14.01,2013-03-04 07:55:00,
2013-03-04 02:56:00,21.5,18.5,30.15,NW,319,0.0,0.0,88,0.00,,---,0.00,VWS V14.01,2013-03-04 07:56:00,
2013-03-04 03:00:00,22.5,19.2,30.13,NW,319,0.0,0.0,87,0.00,,---,0.00,VWS V14.01,2013-03-04 08:00:00,
2013-03-04 03:01:00,21.7,19.0,30.15,NW,319,0.0,0.0,89,0.00,,---,0.00,VWS V14.01,2013-03-04 08:01:00,
2013-03-04 03:05:00,22.5,19.2,30.14,NW,319,0.0,0.0,87,0.00,,---,0.00,VWS V14.01,2013-03-04 08:05:00,
2013-03-04 03:06:00,21.9,19.2,30.15,NW,319,0.0,0.0,89,0.00,,---,0.00,VWS V14.01,2013-03-04 08:06:00,
2013-03-04 03:10:00,22.4,19.1,30.14,NW,319,0.0,0.0,87,0.00,,---,0.00,VWS V14.01,2013-03-04 08:10:00,
2013-03-04 03:11:00,22.1,19.6,30.16,NW,319,0.0,0.0,90,0.00,,---,0.00,VWS V14.01,2013-03-04 08:11:00,
2013-03-04 03:15:00,22.3,19.0,30.14,NW,319,0.0,0.0,87,0.00,,---,0.00,VWS V14.01,2013-03-04 08:15:00,
2013-03-04 03:16:00,22.4,19.9,30.15,NW,319,0.0,0.0,90,0.00,,---,0.00,VWS V14.01,2013-03-04 08:16:00,
2013-03-04 03:20:00,22.2,18.9,30.14,NW,319,0.0,0.0,87,0.00,,---,0.00,VWS V14.01,2013-03-04 08:20:00,
2013-03-04 03:21:00,22.5,20.0,30.16,NW,319,0.0,0.0,90,0.00,,---,0.00,VWS V14.01,2013-03-04 08:21:00,
2013-03-04 03:25:00,22.1,18.8,30.14,NW,319,0.0,0.0,87,0.00,,---,0.00,VWS V14.01,2013-03-04 08:25:00,
2013-03-04 03:26:00,22.6,20.1,30.15,NW,319,0.0,0.0,90,0.00,,---,0.00,VWS V14.01,2013-03-04 08:26:00,
2013-03-04 03:30:00,22.0,18.7,30.15,NW,319,0.0,0.0,87,0.00,,---,0.00,VWS V14.01,2013-03-04 08:30:00,
2013-03-04 03:32:00,22.7,20.2,30.16,NW,319,0.0,0.0,90,0.00,,---,0.00,VWS V14.01,2013-03-04 08:32:00,
2013-03-04 03:35:00,21.9,18.6,30.15,NW,319,0.0,0.0,87,0.00,,---,0.00,VWS V14.01,2013-03-04 08:35:00,
2013-03-04 03:37:00,22.9,20.4,30.15,NW,319,0.0,0.0,90,0.00,,---,0.00,VWS V14.01,2013-03-04 08:37:00,
2013-03-04 03:40:00,21.8,18.5,30.15,NW,319,0.0,0.0,87,0.00,,---,0.00,VWS V14.01,2013-03-04 08:40:00,
2013-03-04 03:42:00,23.2,20.7,30.16,NW,319,0.0,0.0,90,0.00,,---,0.00,VWS V14.01,2013-03-04 08:42:00,
2013-03-04 03:45:00,21.7,18.4,30.15,NW,319,0.0,0.0,87,0.00,,---,0.00,VWS V14.01,2013-03-04 08:45:00,
2013-03-04 03:47:00,23.5,21.3,30.16,NW,319,0.0,0.0,91,0.00,,---,0.00,VWS V14.01,2013-03-04 08:47:00,
2013-03-04 03:50:00,21.7,18.7,30.14,NW,319,0.0,0.0,88,0.00,,---,0.00,VWS V14.01,2013-03-04 08:50:00,
2013-03-04 03:52:00,23.8,21.6,30.15,NW,319,0.0,0.0,91,0.00,,---,0.00,VWS V14.01,2013-03-04 08:52:00,
2013-03-04 03:55:00,21.7,18.7,30.14,NW,319,0.0,0.0,88,0.00,,---,0.00,VWS V14.01,2013-03-04 08:55:00,
2013-03-04 03:57:00,24.2,22.0,30.15,NW,319,0.0,0.0,91,0.00,,---,0.00,VWS V14.01,2013-03-04 08:57:00,
2013-03-04 04:00:00,21.7,18.7,30.15,NW,319,0.0,0.0,88,0.00,,---,0.00,VWS V14.01,2013-03-04 09:00:00,
2013-03-04 04:02:00,24.4,22.2,30.15,NW,319,0.0,0.0,91,0.00,,---,0.00,VWS V14.01,2013-03-04 09:02:00,
2013-03-04 04:05:00,21.7,18.7,30.14,NW,319,0.0,0.0,88,0.00,,---,0.00,VWS V14.01,2013-03-04 09:05:00,
2013-03-04 04:07:00,24.6,22.1,30.15,NW,319,0.0,0.0,90,0.00,,---,0.00,VWS V14.01,2013-03-04 09:07:00,
2013-03-04 04:10:00,21.6,18.6,30.14,NW,319,0.0,0.0,88,0.00,,---,0.00,VWS V14.01,2013-03-04 09:10:00,
2013-03-04 04:12:00,24.8,22.3,30.15,NW,319,0.0,0.0,90,0.00,,---,0.00,VWS V14.01,2013-03-04 09:12:00,
2013-03-04 04:15:00,21.6,18.6,30.14,NW,319,0.0,0.0,88,0.00,,---,0.00,VWS V14.01,2013-03-04 09:15:00,
2013-03-04 04:17:00,25.0,22.5,30.16,NW,319,0.0,0.0,90,0.00,,---,0.00,VWS V14.01,2013-03-04 09:17:00,
2013-03-04 04:20:00,21.5,18.5,30.14,NW,319,0.0,0.0,88,0.00,,---,0.00,VWS V14.01,2013-03-04 09:20:00,
2013-03-04 04:22:00,25.3,22.8,30.16,NW,319,0.0,0.0,90,0.00,,---,0.00,VWS V14.01,2013-03-04 09:22:00,
2013-03-04 04:25:00,21.5,18.5,30.15,NW,319,0.0,0.0,88,0.00,,---,0.00,VWS V14.01,2013-03-04 09:25:00,
2013-03-04 04:27:00,25.6,23.1,30.16,NW,319,0.0,0.0,90,0.00,,---,0.00,VWS V14.01,2013-03-04 09:27:00,
2013-03-04 04:30:00,21.6,18.9,30.15,NW,319,0.0,0.0,89,0.00,,---,0.00,VWS V14.01,2013-03-04 09:30:00,
2013-03-04 04:32:00,25.8,23.3,30.16,NW,319,0.0,0.0,90,0.00,,---,0.00,VWS V14.01,2013-03-04 09:32:00,
2013-03-04 04:35:00,21.8,19.1,30.15,NW,319,0.0,0.0,89,0.00,,---,0.00,VWS V14.01,2013-03-04 09:35:00,
2013-03-04 04:37:00,26.1,23.6,30.16,NW,319,0.0,0.0,90,0.00,,---,0.00,VWS V14.01,2013-03-04 09:37:00,
2013-03-04 04:40:00,22.0,19.3,30.15,NW,319,0.0,0.0,89,0.00,,---,0.00,VWS V14.01,2013-03-04 09:40:00,
2013-03-04 04:42:00,26.3,23.8,30.16,NW,319,0.0,0.0,90,0.00,,---,0.00,VWS V14.01,2013-03-04 09:42:00,
2013-03-04 04:45:00,22.3,19.8,30.15,NW,319,0.0,0.0,90,0.00,,---,0.00,VWS V14.01,2013-03-04 09:45:00,
2013-03-04 04:47:00,26.5,23.7,30.16,NW,319,0.0,0.0,89,0.00,,---,0.00,VWS V14.01,2013-03-04 09:47:00,
2013-03-04 04:50:00,22.5,20.0,30.16,NW,319,0.0,0.0,90,0.00,,---,0.00,VWS V14.01,2013-03-04 09:50:00,
2013-03-04 04:52:00,26.6,23.8,30.16,NW,319,0.0,0.0,89,0.00,,---,0.00,VWS V14.01,2013-03-04 09:52:00,
2013-03-04 04:55:00,22.5,20.0,30.15,NW,319,0.0,0.0,90,0.00,,---,0.00,VWS V14.01,2013-03-04 09:55:00,
2013-03-04 04:57:00,26.8,24.0,30.17,NW,319,0.0,0.0,89,0.00,,---,0.00,VWS V14.01,2013-03-04 09:57:00,
2013-03-04 05:00:00,22.6,20.1,30.15,NW,319,0.0,0.0,90,0.00,,---,0.00,VWS V14.01,2013-03-04 10:00:00,
2013-03-04 05:02:00,26.9,23.8,30.17,NW,319,0.0,0.0,88,0.00,,---,0.00,VWS V14.01,2013-03-04 10:02:00,
2013-03-04 05:05:00,22.8,20.3,30.15,NW,319,0.0,0.0,90,0.00,,---,0.00,VWS V14.01,2013-03-04 10:05:00,
2013-03-04 05:07:00,27.2,24.1,30.17,NW,319,0.0,0.0,88,0.00,,---,0.00,VWS V14.01,2013-03-04 10:07:00,
2013-03-04 05:10:00,23.1,20.6,30.16,NW,319,0.0,0.0,90,0.00,,---,0.00,VWS V14.01,2013-03-04 10:10:00,
2013-03-04 05:12:00,27.4,24.3,30.17,NW,319,0.0,0.0,88,0.00,,---,0.00,VWS V14.01,2013-03-04 10:12:00,
2013-03-04 05:15:00,23.3,20.8,30.16,NW,319,0.0,0.0,90,0.00,,---,0.00,VWS V14.01,2013-03-04 10:15:00,
2013-03-04 05:17:00,27.6,24.2,30.18,NW,319,0.0,0.0,87,0.00,,---,0.00,VWS V14.01,2013-03-04 10:17:00,
2013-03-04 05:20:00,26.5,23.7,30.16,NW,319,0.0,0.0,89,0.00,,---,0.00,VWS V14.01,2013-03-04 10:20:00,
2013-03-04 05:22:00,27.7,24.3,30.18,NW,319,0.0,0.0,87,0.00,,---,0.00,VWS V14.01,2013-03-04 10:22:00,
2013-03-04 05:25:00,23.9,21.7,30.15,NW,319,0.0,0.0,91,0.00,,---,0.00,VWS V14.01,2013-03-04 10:25:00,
2013-03-04 05:27:00,27.8,24.4,30.18,NW,319,0.0,0.0,87,0.00,,---,0.00,VWS V14.01,2013-03-04 10:27:00,
2013-03-04 05:30:00,24.2,22.0,30.15,NW,319,0.0,0.0,91,0.00,,---,0.00,VWS V14.01,2013-03-04 10:30:00,
2013-03-04 05:32:00,28.0,24.6,30.18,NW,319,0.0,0.0,87,0.00,,---,0.00,VWS V14.01,2013-03-04 10:32:00,
2013-03-04 05:35:00,27.0,23.9,30.17,NW,319,0.0,0.0,88,0.00,,---,0.00,VWS V14.01,2013-03-04 10:35:00,
2013-03-04 05:37:00,28.2,24.8,30.17,NW,319,0.0,0.0,87,0.00,,---,0.00,VWS V14.01,2013-03-04 10:37:00,
2013-03-04 05:40:00,24.7,22.2,30.15,NW,319,0.0,0.0,90,0.00,,---,0.00,VWS V14.01,2013-03-04 10:40:00,
2013-03-04 05:42:00,28.3,24.7,30.17,NW,319,0.0,0.0,86,0.00,,---,0.00,VWS V14.01,2013-03-04 10:42:00,
2013-03-04 05:45:00,24.9,22.4,30.15,NW,319,0.0,0.0,90,0.00,,---,0.00,VWS V14.01,2013-03-04 10:45:00,
2013-03-04 05:47:00,28.4,24.8,30.17,NW,319,0.0,0.0,86,0.00,,---,0.00,VWS V14.01,2013-03-04 10:47:00,
2013-03-04 05:50:00,25.1,22.6,30.16,NW,319,0.0,0.0,90,0.00,,---,0.00,VWS V14.01,2013-03-04 10:50:00,
2013-03-04 05:52:00,28.5,24.6,30.17,NW,319,0.0,0.0,85,0.00,,---,0.00,VWS V14.01,2013-03-04 10:52:00,
2013-03-04 05:55:00,27.7,24.3,30.18,NW,319,0.0,0.0,87,0.00,,---,0.00,VWS V14.01,2013-03-04 10:55:00,
2013-03-04 05:57:00,28.6,24.7,30.18,NW,319,0.0,0.0,85,0.00,,---,0.00,VWS V14.01,2013-03-04 10:57:00,
2013-03-04 06:00:00,27.9,24.5,30.17,NW,319,0.0,0.0,87,0.00,,---,0.00,VWS V14.01,2013-03-04 11:00:00,
2013-03-04 06:02:00,28.7,24.8,30.18,NW,319,0.0,0.0,85,0.00,,---,0.00,VWS V14.01,2013-03-04 11:02:00,
2013-03-04 06:05:00,25.9,23.4,30.16,NW,319,0.0,0.0,90,0.00,,---,0.00,VWS V14.01,2013-03-04 11:05:00,
2013-03-04 06:07:00,28.8,24.9,30.18,NW,319,0.0,0.0,85,0.00,,---,0.00,VWS V14.01,2013-03-04 11:07:00,
2013-03-04 06:10:00,26.1,23.6,30.16,NW,319,0.0,0.0,90,0.00,,---,0.00,VWS V14.01,2013-03-04 11:10:00,
2013-03-04 06:12:00,28.8,24.9,30.19,NW,319,0.0,0.0,85,0.00,,---,0.00,VWS V14.01,2013-03-04 11:12:00,
2013-03-04 06:15:00,26.3,23.8,30.16,NW,319,0.0,0.0,90,0.00,,---,0.00,VWS V14.01,2013-03-04 11:15:00,
2013-03-04 06:17:00,28.9,25.0,30.18,NW,319,0.0,0.0,85,0.00,,---,0.00,VWS V14.01,2013-03-04 11:17:00,
2013-03-04 06:20:00,26.5,23.7,30.16,NW,319,0.0,0.0,89,0.00,,---,0.00,VWS V14.01,2013-03-04 11:20:00,
2013-03-04 06:22:00,29.0,24.8,30.18,NW,319,0.0,0.0,84,0.00,,---,0.00,VWS V14.01,2013-03-04 11:22:00,
2013-03-04 06:25:00,26.6,23.8,30.16,NW,319,0.0,0.0,89,0.00,,---,0.00,VWS V14.01,2013-03-04 11:25:00,
2013-03-04 06:27:00,29.0,24.8,30.18,NW,319,0.0,0.0,84,0.00,,---,0.00,VWS V14.01,2013-03-04 11:27:00,
2013-03-04 06:30:00,26.8,24.0,30.17,NW,319,0.0,0.0,89,0.00,,---,0.00,VWS V14.01,2013-03-04 11:30:00,
2013-03-04 06:32:00,29.1,24.9,30.19,NW,319,0.0,0.0,84,0.00,,---,0.00,VWS V14.01,2013-03-04 11:32:00,
2013-03-04 06:35:00,27.0,23.9,30.17,NW,319,0.0,0.0,88,0.00,,---,0.00,VWS V14.01,2013-03-04 11:35:00,
2013-03-04 06:37:00,29.2,25.0,30.19,NW,319,0.0,0.0,84,0.00,,---,0.00,VWS V14.01,2013-03-04 11:37:00,
2013-03-04 06:40:00,27.3,24.2,30.17,NW,319,0.0,0.0,88,0.00,,---,0.00,VWS V14.01,2013-03-04 11:40:00,
2013-03-04 06:42:00,29.3,25.1,30.19,NW,319,0.0,0.0,84,0.00,,---,0.00,VWS V14.01,2013-03-04 11:42:00,
2013-03-04 06:45:00,27.4,24.3,30.17,NW,319,0.0,0.0,88,0.00,,---,0.00,VWS V14.01,2013-03-04 11:45:00,
2013-03-04 06:47:00,29.4,25.2,30.19,NW,319,0.0,0.0,84,0.00,,---,0.00,VWS V14.01,2013-03-04 11:47:00,
2013-03-04 06:50:00,27.6,24.2,30.18,NW,319,0.0,0.0,87,0.00,,---,0.00,VWS V14.01,2013-03-04 11:50:00,
2013-03-04 06:52:00,29.6,25.4,30.19,NW,319,0.0,0.0,84,0.00,,---,0.00,VWS V14.01,2013-03-04 11:52:00,
2013-03-04 06:55:00,27.7,24.3,30.18,NW,319,0.0,0.0,87,0.00,,---,0.00,VWS V14.01,2013-03-04 11:55:00,
2013-03-04 06:57:00,29.6,25.1,30.19,NW,319,0.0,0.0,83,0.00,,---,0.00,VWS V14.01,2013-03-04 11:57:00,
2013-03-04 07:00:00,27.9,24.5,30.17,NW,319,0.0,0.0,87,0.00,,---,0.00,VWS V14.01,2013-03-04 12:00:00,
2013-03-04 07:02:00,29.7,25.2,30.19,NW,319,0.0,0.0,83,0.00,,---,0.00,VWS V14.01,2013-03-04 12:02:00,
2013-03-04 07:05:00,28.1,24.7,30.17,NW,319,0.0,0.0,87,0.00,,---,0.00,VWS V14.01,2013-03-04 12:05:00,
2013-03-04 07:07:00,29.8,25.3,30.19,NW,319,0.0,0.0,83,0.00,,---,0.00,VWS V14.01,2013-03-04 12:07:00,
2013-03-04 07:10:00,28.2,24.6,30.17,NW,319,0.0,0.0,86,0.00,,---,0.00,VWS V14.01,2013-03-04 12:10:00,
2013-03-04 07:12:00,29.8,25.3,30.19,NW,319,0.0,0.0,83,0.00,,---,0.00,VWS V14.01,2013-03-04 12:12:00,
2013-03-04 07:15:00,28.3,24.7,30.17,NW,319,0.0,0.0,86,0.00,,---,0.00,VWS V14.01,2013-03-04 12:15:00,
2013-03-04 07:17:00,30.0,25.5,30.19,NW,319,0.0,0.0,83,0.00,,---,0.00,VWS V14.01,2013-03-04 12:17:00,
2013-03-04 07:20:00,28.4,24.8,30.17,NW,319,0.0,0.0,86,0.00,,---,0.00,VWS V14.01,2013-03-04 12:20:00,
2013-03-04 07:22:00,30.0,25.2,30.19,NW,319,0.0,0.0,82,0.00,,---,0.00,VWS V14.01,2013-03-04 12:22:00,
2013-03-04 07:25:00,28.5,24.6,30.18,NW,319,0.0,0.0,85,0.00,,---,0.00,VWS V14.01,2013-03-04 12:25:00,
2013-03-04 07:27:00,30.2,25.4,30.19,NW,319,0.0,0.0,82,0.00,,---,0.00,VWS V14.01,2013-03-04 12:27:00,
2013-03-04 07:30:00,28.6,24.7,30.18,NW,319,0.0,0.0,85,0.00,,---,0.00,VWS V14.01,2013-03-04 12:30:00,
2013-03-04 07:32:00,30.3,25.2,30.19,NW,319,0.0,0.0,81,0.00,,---,0.00,VWS V14.01,2013-03-04 12:32:00,
2013-03-04 07:35:00,28.7,24.8,30.18,NW,319,0.0,0.0,85,0.00,,---,0.00,VWS V14.01,2013-03-04 12:35:00,
2013-03-04 07:37:00,30.5,25.4,30.19,NW,319,0.0,0.0,81,0.00,,---,0.00,VWS V14.01,2013-03-04 12:37:00,
2013-03-04 07:40:00,28.8,24.9,30.18,NW,319,0.0,0.0,85,0.00,,---,0.00,VWS V14.01,2013-03-04 12:40:00,
2013-03-04 07:42:00,30.6,25.5,30.19,NW,319,0.0,0.0,81,0.00,,---,0.00,VWS V14.01,2013-03-04 12:42:00,
2013-03-04 07:45:00,28.9,25.0,30.18,NW,319,0.0,0.0,85,0.00,,---,0.00,VWS V14.01,2013-03-04 12:45:00,
2013-03-04 07:47:00,30.7,25.0,30.19,NW,319,0.0,0.0,79,0.00,,---,0.00,VWS V14.01,2013-03-04 12:47:00,
2013-03-04 07:50:00,28.9,25.0,30.18,NW,319,0.0,0.0,85,0.00,,---,0.00,VWS V14.01,2013-03-04 12:50:00,
2013-03-04 07:52:00,30.8,25.1,30.19,NW,319,0.0,0.0,79,0.00,,---,0.00,VWS V14.01,2013-03-04 12:52:00,
2013-03-04 07:55:00,29.0,24.8,30.19,NW,319,0.0,0.0,84,0.00,,---,0.00,VWS V14.01,2013-03-04 12:55:00,
2013-03-04 07:57:00,30.9,25.2,30.20,NW,319,0.0,0.0,79,0.00,,---,0.00,VWS V14.01,2013-03-04 12:57:00,
2013-03-04 08:00:00,29.0,24.8,30.19,NW,319,0.0,0.0,84,0.00,,---,0.00,VWS V14.01,2013-03-04 13:00:00,
2013-03-04 08:02:00,31.0,25.0,30.20,NW,319,0.0,0.0,78,0.00,,---,0.00,VWS V14.01,2013-03-04 13:02:00,
2013-03-04 08:05:00,29.1,24.9,30.19,NW,319,0.0,0.0,84,0.00,,---,0.00,VWS V14.01,2013-03-04 13:05:00,
2013-03-04 08:07:00,31.0,25.0,30.20,NW,319,0.0,0.0,78,0.00,,---,0.00,VWS V14.01,2013-03-04 13:07:00,
2013-03-04 08:10:00,29.2,25.0,30.19,NW,319,0.0,0.0,84,0.00,,---,0.00,VWS V14.01,2013-03-04 13:10:00,
2013-03-04 08:12:00,31.0,25.0,30.20,NW,319,0.0,0.0,78,0.00,,---,0.00,VWS V14.01,2013-03-04 13:12:00,
2013-03-04 08:15:00,29.4,25.2,30.19,NW,319,0.0,0.0,84,0.00,,---,0.00,VWS V14.01,2013-03-04 13:15:00,
2013-03-04 08:17:00,31.1,25.4,30.20,NW,319,0.0,0.0,79,0.00,,---,0.00,VWS V14.01,2013-03-04 13:17:00,
2013-03-04 08:20:00,29.5,25.3,30.19,NW,319,0.0,0.0,84,0.00,,---,0.00,VWS V14.01,2013-03-04 13:20:00,
2013-03-04 08:22:00,31.3,25.6,30.20,NW,319,0.0,0.0,79,0.00,,---,0.00,VWS V14.01,2013-03-04 13:22:00,
2013-03-04 08:25:00,29.6,25.4,30.19,NW,319,0.0,0.0,84,0.00,,---,0.00,VWS V14.01,2013-03-04 13:25:00,
2013-03-04 08:27:00,31.7,25.9,30.20,NW,319,0.0,0.0,79,0.00,,---,0.00,VWS V14.01,2013-03-04 13:27:00,
2013-03-04 08:30:00,29.7,25.2,30.19,NW,319,0.0,0.0,83,0.00,,---,0.00,VWS V14.01,2013-03-04 13:30:00,
2013-03-04 08:32:00,32.2,26.1,30.20,NW,319,0.0,0.0,78,0.00,,---,0.00,VWS V14.01,2013-03-04 13:32:00,
2013-03-04 08:35:00,29.8,25.3,30.19,NW,319,0.0,0.0,83,0.00,,---,0.00,VWS V14.01,2013-03-04 13:35:00,
2013-03-04 08:37:00,32.6,25.9,30.20,NW,319,0.0,0.0,76,0.00,,---,0.00,VWS V14.01,2013-03-04 13:37:00,
2013-03-04 08:40:00,29.8,25.3,30.19,NW,319,0.0,0.0,83,0.00,,---,0.00,VWS V14.01,2013-03-04 13:40:00,
2013-03-04 08:42:00,33.1,25.7,30.20,NW,319,0.0,0.0,74,0.00,,---,0.00,VWS V14.01,2013-03-04 13:42:00,
2013-03-04 08:45:00,29.9,25.4,30.19,NW,319,0.0,0.0,83,0.00,,---,0.00,VWS V14.01,2013-03-04 13:45:00,
2013-03-04 08:47:00,33.5,25.8,30.20,NW,319,0.0,0.0,73,0.00,,---,0.00,VWS V14.01,2013-03-04 13:47:00,
2013-03-04 08:50:00,30.0,25.5,30.19,NW,319,0.0,0.0,83,0.00,,---,0.00,VWS V14.01,2013-03-04 13:50:00,
2013-03-04 08:52:00,33.8,25.7,30.21,NW,319,0.0,0.0,72,0.00,,---,0.00,VWS V14.01,2013-03-04 13:52:00,
2013-03-04 08:55:00,30.1,25.3,30.19,NW,319,0.0,0.0,82,0.00,,---,0.00,VWS V14.01,2013-03-04 13:55:00,
2013-03-04 08:57:00,34.1,25.0,30.21,NW,319,0.0,0.0,69,0.00,,---,0.00,VWS V14.01,2013-03-04 13:57:00,
2013-03-04 09:00:00,30.2,25.4,30.19,NW,319,0.0,0.0,82,0.00,,---,0.00,VWS V14.01,2013-03-04 14:00:00,
2013-03-04 09:02:00,34.3,24.5,30.21,NW,319,0.0,0.0,67,0.00,,---,0.00,VWS V14.01,2013-03-04 14:02:00,
2013-03-04 09:05:00,30.3,25.2,30.19,NW,319,0.0,0.0,81,0.00,,---,0.00,VWS V14.01,2013-03-04 14:05:00,
2013-03-04 09:07:00,34.6,24.4,30.21,NW,319,0.0,0.0,66,0.00,,---,0.00,VWS V14.01,2013-03-04 14:07:00,
2013-03-04 09:10:00,30.5,25.4,30.19,NW,319,0.0,0.0,81,0.00,,---,0.00,VWS V14.01,2013-03-04 14:10:00,
2013-03-04 09:12:00,34.9,24.0,30.22,NW,319,0.0,0.0,64,0.00,,---,0.00,VWS V14.01,2013-03-04 14:12:00,
2013-03-04 09:15:00,30.7,25.3,30.19,NW,319,0.0,0.0,80,0.00,,---,0.00,VWS V14.01,2013-03-04 14:15:00,
2013-03-04 09:17:00,35.3,23.6,30.21,NW,319,0.0,0.0,62,0.00,,---,0.00,VWS V14.01,2013-03-04 14:17:00,
2013-03-04 09:20:00,30.8,25.1,30.19,NW,319,0.0,0.0,79,0.00,,---,0.00,VWS V14.01,2013-03-04 14:20:00,
2013-03-04 09:22:00,35.8,24.1,30.21,NW,319,0.0,0.0,62,0.00,,---,0.00,VWS V14.01,2013-03-04 14:22:00,
2013-03-04 09:25:00,30.9,25.2,30.19,NW,319,0.0,0.0,79,0.00,,---,0.00,VWS V14.01,2013-03-04 14:25:00,
2013-03-04 09:27:00,36.4,23.0,30.21,NW,319,0.0,0.0,58,0.00,,---,0.00,VWS V14.01,2013-03-04 14:27:00,
2013-03-04 09:30:00,30.9,25.2,30.20,NW,319,0.0,0.0,79,0.00,,---,0.00,VWS V14.01,2013-03-04 14:30:00,
2013-03-04 09:33:00,37.0,24.4,30.20,NW,319,0.0,0.0,60,0.00,,---,0.00,VWS V14.01,2013-03-04 14:33:00,
2013-03-04 09:35:00,34.3,24.5,30.21,NW,319,0.0,0.0,67,0.00,,---,0.00,VWS V14.01,2013-03-04 14:35:00,
2013-03-04 09:38:00,37.4,23.6,30.20,NW,319,0.0,0.0,57,0.00,,---,0.00,VWS V14.01,2013-03-04 14:38:00,
2013-03-04 09:40:00,31.0,25.0,30.20,NW,319,0.0,0.0,78,0.00,,---,0.00,VWS V14.01,2013-03-04 14:40:00,
2013-03-04 09:43:00,38.0,24.1,30.20,NW,319,0.0,0.0,57,0.00,,---,0.00,VWS V14.01,2013-03-04 14:43:00,
2013-03-04 09:45:00,34.9,23.6,30.21,NW,319,0.0,0.0,63,0.00,,---,0.00,VWS V14.01,2013-03-04 14:45:00,
2013-03-04 09:48:00,38.6,24.7,30.20,NW,319,0.0,0.0,57,0.00,,---,0.00,VWS V14.01,2013-03-04 14:48:00,
2013-03-04 09:50:00,31.1,25.4,30.21,NW,319,0.0,0.0,79,0.00,,---,0.00,VWS V14.01,2013-03-04 14:50:00,
2013-03-04 09:53:00,39.2,24.8,30.20,NW,319,0.0,0.0,56,0.00,,---,0.00,VWS V14.01,2013-03-04 14:53:00,
2013-03-04 09:55:00,31.4,25.6,30.20,NW,319,0.0,0.0,79,0.00,,---,0.00,VWS V14.01,2013-03-04 14:55:00,
2013-03-04 09:58:00,39.7,25.3,30.20,NW,319,0.0,0.0,56,0.00,,---,0.00,VWS V14.01,2013-03-04 14:58:00,
2013-03-04 10:00:00,31.8,26.0,30.20,NW,319,0.0,0.0,79,0.00,,---,0.00,VWS V14.01,2013-03-04 15:00:00,
2013-03-04 10:03:00,40.3,24.5,30.21,NW,321,0.0,0.0,53,0.00,,---,0.00,VWS V14.01,2013-03-04 15:03:00,
2013-03-04 10:05:00,32.3,25.9,30.20,NW,319,0.0,0.0,77,0.00,,---,0.00,VWS V14.01,2013-03-04 15:05:00,
2013-03-04 10:08:00,40.8,25.0,30.20,NW,321,0.0,0.0,53,0.00,,---,0.00,VWS V14.01,2013-03-04 15:08:00,
2013-03-04 10:10:00,32.7,26.0,30.20,NW,319,0.0,0.0,76,0.00,,---,0.00,VWS V14.01,2013-03-04 15:10:00,
2013-03-04 10:13:00,41.2,25.8,30.20,NW,321,0.0,0.0,54,0.00,,---,0.00,VWS V14.01,2013-03-04 15:13:00,
2013-03-04 10:15:00,33.2,25.8,30.21,NW,319,0.0,0.0,74,0.00,,---,0.00,VWS V14.01,2013-03-04 15:15:00,
2013-03-04 10:18:00,41.7,24.9,30.20,NW,320,0.0,0.0,51,0.00,,---,0.00,VWS V14.01,2013-03-04 15:18:00,
2013-03-04 10:20:00,33.5,25.8,30.20,NW,319,0.0,0.0,73,0.00,,---,0.00,VWS V14.01,2013-03-04 15:20:00,
2013-03-04 10:23:00,41.9,24.1,30.19,NW,320,0.0,0.0,49,0.00,,---,0.00,VWS V14.01,2013-03-04 15:23:00,
2013-03-04 10:25:00,33.9,25.5,30.21,NW,319,0.0,0.0,71,0.00,,---,0.00,VWS V14.01,2013-03-04 15:25:00,
2013-03-04 10:28:00,42.0,24.2,30.20,NW,321,0.0,0.0,49,0.00,,---,0.00,VWS V14.01,2013-03-04 15:28:00,
2013-03-04 10:30:00,34.1,24.7,30.21,NW,319,0.0,0.0,68,0.00,,---,0.00,VWS V14.01,2013-03-04 15:30:00,
2013-03-04 10:33:00,42.3,24.0,30.20,NW,321,0.0,0.0,48,0.00,,---,0.00,VWS V14.01,2013-03-04 15:33:00,
2013-03-04 10:35:00,34.3,24.5,30.21,NW,319,0.0,0.0,67,0.00,,---,0.00,VWS V14.01,2013-03-04 15:35:00,
2013-03-04 10:38:00,42.6,23.3,30.20,NW,321,0.0,0.0,46,0.00,,---,0.00,VWS V14.01,2013-03-04 15:38:00,
2013-03-04 10:40:00,34.7,24.5,30.22,NW,319,0.0,0.0,66,0.00,,---,0.00,VWS V14.01,2013-03-04 15:40:00,
2013-03-04 10:43:00,43.1,25.3,30.20,NW,320,0.0,0.0,49,0.00,,---,0.00,VWS V14.01,2013-03-04 15:43:00,
2013-03-04 10:45:00,34.9,23.6,30.21,NW,319,0.0,0.0,63,0.00,,---,0.00,VWS V14.01,2013-03-04 15:45:00,
2013-03-04 10:48:00,43.1,23.2,30.20,NW,320,0.0,0.0,45,0.00,,---,0.00,VWS V14.01,2013-03-04 15:48:00,
2013-03-04 10:50:00,35.4,23.3,30.21,NW,319,0.0,0.0,61,0.00,,---,0.00,VWS V14.01,2013-03-04 15:50:00,
2013-03-04 10:53:00,42.3,23.5,30.20,NW,320,0.0,0.0,47,0.00,,---,0.00,VWS V14.01,2013-03-04 15:53:00,
2013-03-04 10:55:00,36.0,24.3,30.21,NW,319,0.0,0.0,62,0.00,,---,0.00,VWS V14.01,2013-03-04 15:55:00,
2013-03-04 10:58:00,42.4,24.1,30.19,NW,320,0.0,0.0,48,0.00,,---,0.00,VWS V14.01,2013-03-04 15:58:00,
2013-03-04 11:00:00,36.5,23.5,30.21,NW,319,0.0,0.0,59,0.00,,---,0.00,VWS V14.01,2013-03-04 16:00:00,
2013-03-04 11:03:00,42.6,24.8,30.19,NW,321,0.0,0.0,49,0.00,,---,0.00,VWS V14.01,2013-03-04 16:03:00,
2013-03-04 11:05:00,37.1,24.1,30.20,NW,319,0.0,0.0,59,0.00,,---,0.00,VWS V14.01,2013-03-04 16:05:00,
2013-03-04 11:08:00,43.2,25.4,30.19,NW,320,0.0,0.0,49,0.00,,---,0.00,VWS V14.01,2013-03-04 16:08:00,
2013-03-04 11:10:00,37.5,24.1,30.20,NW,319,0.0,0.0,58,0.00,,---,0.00,VWS V14.01,2013-03-04 16:10:00,
2013-03-04 11:13:00,44.1,24.7,30.18,NW,320,0.0,0.0,46,0.00,,---,0.00,VWS V14.01,2013-03-04 16:13:00,
2013-03-04 11:15:00,38.1,23.8,30.20,NW,319,0.0,0.0,56,0.00,,---,0.00,VWS V14.01,2013-03-04 16:15:00,
2013-03-04 11:18:00,44.9,24.9,30.18,NW,321,0.0,0.0,45,0.00,,---,0.00,VWS V14.01,2013-03-04 16:18:00,
2013-03-04 11:20:00,38.7,24.8,30.20,NW,319,0.0,0.0,57,0.00,,---,0.00,VWS V14.01,2013-03-04 16:20:00,
2013-03-04 11:23:00,45.2,25.7,30.18,NW,321,0.0,0.0,46,0.00,,---,0.00,VWS V14.01,2013-03-04 16:23:00,
2013-03-04 11:25:00,39.3,24.9,30.20,NW,319,0.0,0.0,56,0.00,,---,0.00,VWS V14.01,2013-03-04 16:25:00,
2013-03-04 11:28:00,45.7,25.6,30.18,NW,320,0.0,0.0,45,0.00,,---,0.00,VWS V14.01,2013-03-04 16:28:00,
2013-03-04 11:30:00,39.9,25.1,30.20,NW,319,0.0,0.0,55,0.00,,---,0.00,VWS V14.01,2013-03-04 16:30:00,
2013-03-04 11:33:00,45.9,25.2,30.17,NW,320,0.0,0.0,44,0.00,,---,0.00,VWS V14.01,2013-03-04 16:33:00,
2013-03-04 11:35:00,40.4,24.6,30.21,NW,319,0.0,0.0,53,0.00,,---,0.00,VWS V14.01,2013-03-04 16:35:00,
2013-03-04 11:38:00,45.6,25.5,30.17,NW,321,0.0,0.0,45,0.00,,---,0.00,VWS V14.01,2013-03-04 16:38:00,
2013-03-04 11:40:00,40.9,25.1,30.20,NW,319,0.0,0.0,53,0.00,,---,0.00,VWS V14.01,2013-03-04 16:40:00,
2013-03-04 11:43:00,45.8,25.1,30.17,NW,320,0.0,0.0,44,0.00,,---,0.00,VWS V14.01,2013-03-04 16:43:00,
2013-03-04 11:45:00,41.4,26.0,30.20,NW,320,0.0,0.0,54,0.00,,---,0.00,VWS V14.01,2013-03-04 16:45:00,
2013-03-04 11:48:00,46.0,24.8,30.17,NW,321,0.0,0.0,43,0.00,,---,0.00,VWS V14.01,2013-03-04 16:48:00,
2013-03-04 11:50:00,45.0,24.4,30.18,NW,320,0.0,0.0,44,0.00,,---,0.00,VWS V14.01,2013-03-04 16:50:00,
2013-03-04 11:53:00,46.6,26.4,30.17,NW,320,0.0,0.0,45,0.00,,---,0.00,VWS V14.01,2013-03-04 16:53:00,
2013-03-04 11:55:00,41.9,24.1,30.19,NW,320,0.0,0.0,49,0.00,,---,0.00,VWS V14.01,2013-03-04 16:55:00,
2013-03-04 11:58:00,47.3,25.4,30.17,NW,321,0.0,0.0,42,0.00,,---,0.00,VWS V14.01,2013-03-04 16:58:00,
2013-03-04 12:00:00,42.1,24.8,30.20,NW,321,0.0,0.0,50,0.00,,---,0.00,VWS V14.01,2013-03-04 17:00:00,
2013-03-04 12:03:00,48.0,25.4,30.17,NW,319,0.0,0.0,41,0.00,,---,0.00,VWS V14.01,2013-03-04 17:03:00,
2013-03-04 12:05:00,42.4,24.1,30.20,NW,321,0.0,0.0,48,0.00,,---,0.00,VWS V14.01,2013-03-04 17:05:00,
2013-03-04 12:08:00,47.1,25.2,30.17,NW,321,0.0,0.0,42,0.00,,---,0.00,VWS V14.01,2013-03-04 17:08:00,
2013-03-04 12:10:00,42.7,23.9,30.20,NW,320,0.0,0.0,47,0.00,,---,0.00,VWS V14.01,2013-03-04 17:10:00,
2013-03-04 12:13:00,46.8,23.8,30.16,NW,321,0.0,0.0,40,0.00,,---,0.00,VWS V14.01,2013-03-04 17:13:00,
2013-03-04 12:15:00,43.2,24.9,30.20,NW,320,0.0,0.0,48,0.00,,---,0.00,VWS V14.01,2013-03-04 17:15:00,
2013-03-04 12:18:00,46.9,24.5,30.16,NW,320,0.0,0.0,41,0.00,,---,0.00,VWS V14.01,2013-03-04 17:18:00,
2013-03-04 12:20:00,42.9,23.6,30.20,NW,321,0.0,0.0,46,0.00,,---,0.00,VWS V14.01,2013-03-04 17:20:00,
2013-03-04 12:23:00,47.8,26.4,30.15,NW,320,0.0,0.0,43,0.00,,---,0.00,VWS V14.01,2013-03-04 17:23:00,
2013-03-04 12:25:00,42.3,24.0,30.20,NW,320,0.0,0.0,48,0.00,,---,0.00,VWS V14.01,2013-03-04 17:25:00,
2013-03-04 12:28:00,48.8,25.0,30.15,NW,321,0.0,0.0,39,0.00,,---,0.00,VWS V14.01,2013-03-04 17:28:00,
2013-03-04 12:30:00,42.5,24.2,30.19,NW,320,0.0,0.0,48,0.00,,---,0.00,VWS V14.01,2013-03-04 17:30:00,
2013-03-04 12:33:00,49.6,26.9,30.15,NW,321,0.0,0.0,41,0.00,,---,0.00,VWS V14.01,2013-03-04 17:33:00,
2013-03-04 12:35:00,42.6,24.8,30.19,NW,320,0.0,0.0,49,0.00,,---,0.00,VWS V14.01,2013-03-04 17:35:00,
2013-03-04 12:38:00,50.4,25.1,30.15,NW,320,0.0,0.0,37,0.00,,---,0.00,VWS V14.01,2013-03-04 17:38:00,
2013-03-04 12:40:00,43.4,25.0,30.19,NW,320,0.0,0.0,48,0.00,,---,0.00,VWS V14.01,2013-03-04 17:40:00,
2013-03-04 12:43:00,51.1,27.0,30.14,NW,321,0.0,0.0,39,0.00,,---,0.00,VWS V14.01,2013-03-04 17:43:00,
2013-03-04 12:45:00,44.3,24.3,30.18,NW,321,0.0,0.0,45,0.00,,---,0.00,VWS V14.01,2013-03-04 17:45:00,
2013-03-04 12:48:00,51.6,26.2,30.14,NW,320,0.0,0.0,37,0.00,,---,0.00,VWS V14.01,2013-03-04 17:48:00,
2013-03-04 12:50:00,45.0,24.4,30.18,NW,320,0.0,0.0,44,0.00,,---,0.00,VWS V14.01,2013-03-04 17:50:00,
2013-03-04 12:53:00,51.4,24.7,30.14,NW,321,0.0,0.0,35,0.00,,---,0.00,VWS V14.01,2013-03-04 17:53:00,
2013-03-04 12:55:00,45.3,26.3,30.18,NW,320,0.0,0.0,47,0.00,,---,0.00,VWS V14.01,2013-03-04 17:55:00,
2013-03-04 12:58:00,51.7,25.6,30.13,NW,321,0.0,0.0,36,0.00,,---,0.00,VWS V14.01,2013-03-04 17:58:00,
2013-03-04 13:00:00,45.7,24.5,30.18,NW,321,0.0,0.0,43,0.00,,---,0.00,VWS V14.01,2013-03-04 18:00:00,
2013-03-04 13:03:00,52.5,24.2,30.13,NW,320,0.0,0.0,33,0.00,,---,0.00,VWS V14.01,2013-03-04 18:03:00,
2013-03-04 13:05:00,45.9,25.8,30.17,NW,321,0.0,0.0,45,0.00,,---,0.00,VWS V14.01,2013-03-04 18:05:00,
2013-03-04 13:08:00,53.3,26.4,30.13,NW,320,0.0,0.0,35,0.00,,---,0.00,VWS V14.01,2013-03-04 18:08:00,
2013-03-04 13:10:00,45.6,25.5,30.17,NW,321,0.0,0.0,45,0.00,,---,0.00,VWS V14.01,2013-03-04 18:10:00,
2013-03-04 13:13:00,52.6,25.0,30.12,NW,321,0.0,0.0,34,0.00,,---,0.00,VWS V14.01,2013-03-04 18:13:00,
2013-03-04 13:15:00,45.8,25.1,30.17,NW,320,0.0,0.0,44,0.00,,---,0.00,VWS V14.01,2013-03-04 18:15:00,
2013-03-04 13:18:00,51.3,25.3,30.12,NW,320,0.0,0.0,36,0.00,,---,0.00,VWS V14.01,2013-03-04 18:18:00,
2013-03-04 13:20:00,46.1,26.0,30.17,NW,321,0.0,0.0,45,0.00,,---,0.00,VWS V14.01,2013-03-04 18:20:00,
2013-03-04 13:23:00,51.6,24.2,30.11,NW,321,0.0,0.0,34,0.00,,---,0.00,VWS V14.01,2013-03-04 18:23:00,
2013-03-04 13:25:00,46.7,26.5,30.17,NW,321,0.0,0.0,45,0.00,,---,0.00,VWS V14.01,2013-03-04 18:25:00,
2013-03-04 13:28:00,51.4,24.7,30.11,NW,321,0.0,0.0,35,0.00,,---,0.00,VWS V14.01,2013-03-04 18:28:00,
2013-03-04 13:29:00,51.6,24.2,30.11,NW,321,0.0,0.0,34,0.00,,---,0.00,VWS V14.01,2013-03-04 18:29:00,
2013-03-04 13:30:00,47.4,26.0,30.17,NW,320,0.0,0.0,43,0.00,,---,0.00,VWS V14.01,2013-03-04 18:30:00,
2013-03-04 13:34:00,51.2,24.5,30.11,NW,321,0.0,0.0,35,0.00,,---,0.00,VWS V14.01,2013-03-04 18:34:00,
2013-03-04 13:35:00,47.9,24.1,30.17,NW,319,0.0,0.0,39,0.00,,---,0.00,VWS V14.01,2013-03-04 18:35:00,
2013-03-04 13:40:00,51.3,23.9,30.10,NW,321,0.0,0.0,34,0.00,,---,0.00,VWS V14.01,2013-03-04 18:40:00,
2013-03-04 13:45:00,52.0,24.5,30.10,NW,320,0.0,0.0,34,0.00,,---,0.00,VWS V14.01,2013-03-04 18:45:00,
2013-03-04 13:50:00,52.2,24.7,30.09,NW,321,0.0,0.0,34,0.00,,---,0.00,VWS V14.01,2013-03-04 18:50:00,
2013-03-04 13:55:00,51.8,25.7,30.09,NW,321,0.0,0.0,36,0.00,,---,0.00,VWS V14.01,2013-03-04 18:55:00,
2013-03-04 14:00:00,52.4,25.6,30.09,NW,321,0.0,0.0,35,0.00,,---,0.00,VWS V14.01,2013-03-04 19:00:00,
2013-03-04 14:05:00,54.1,28.4,30.09,NW,321,0.0,0.0,37,0.00,,---,0.00,VWS V14.01,2013-03-04 19:05:00,
2013-03-04 14:10:00,56.4,26.9,30.09,NW,320,0.0,0.0,32,0.00,,---,0.00,VWS V14.01,2013-03-04 19:10:00,
2013-03-04 14:15:00,55.8,26.4,30.08,NW,321,0.0,0.0,32,0.00,,---,0.00,VWS V14.01,2013-03-04 19:15:00,
2013-03-04 14:20:00,56.4,25.4,30.08,NW,320,0.0,0.0,30,0.00,,---,0.00,VWS V14.01,2013-03-04 19:20:00,
2013-03-04 14:25:00,56.1,25.1,30.08,NW,320,0.0,0.0,30,0.00,,---,0.00,VWS V14.01,2013-03-04 19:25:00,
2013-03-04 14:30:00,55.2,25.9,30.08,NW,321,0.0,0.0,32,0.00,,---,0.00,VWS V14.01,2013-03-04 19:30:00,
2013-03-04 14:35:00,55.7,27.1,30.08,NW,321,0.0,0.0,33,0.00,,---,0.00,VWS V14.01,2013-03-04 19:35:00,
2013-03-04 14:40:00,56.6,25.5,30.07,NW,321,0.0,0.0,30,0.00,,---,0.00,VWS V14.01,2013-03-04 19:40:00,
2013-03-04 14:45:00,56.9,25.0,30.07,NW,321,0.0,0.0,29,0.00,,---,0.00,VWS V14.01,2013-03-04 19:45:00,
2013-03-04 14:50:00,58.5,27.2,30.07,NW,321,0.0,0.0,30,0.00,,---,0.00,VWS V14.01,2013-03-04 19:50:00,
2013-03-04 14:55:00,59.6,26.5,30.07,NW,321,0.0,0.0,28,0.00,,---,0.00,VWS V14.01,2013-03-04 19:55:00,
2013-03-04 15:00:00,60.5,27.3,30.07,NW,321,0.0,0.0,28,0.00,,---,0.00,VWS V14.01,2013-03-04 20:00:00,
2013-03-04 15:05:00,62.0,25.8,30.06,NW,320,0.0,0.0,25,0.00,,---,0.00,VWS V14.01,2013-03-04 20:05:00,
2013-03-04 15:10:00,60.4,26.3,30.06,NW,320,0.0,0.0,27,0.00,,---,0.00,VWS V14.01,2013-03-04 20:10:00,
2013-03-04 15:15:00,60.5,26.4,30.06,NW,321,0.0,0.0,27,0.00,,---,0.00,VWS V14.01,2013-03-04 20:15:00,
2013-03-04 15:20:00,62.1,26.8,30.06,NW,321,0.0,0.0,26,0.00,,---,0.00,VWS V14.01,2013-03-04 20:20:00,
2013-03-04 15:25:00,62.9,28.4,30.05,NW,320,0.0,0.0,27,0.00,,---,0.00,VWS V14.01,2013-03-04 20:25:00,
2013-03-04 15:30:00,60.0,25.0,30.05,NW,321,0.0,0.0,26,0.00,,---,0.00,VWS V14.01,2013-03-04 20:30:00,
2013-03-04 15:35:00,57.8,24.9,30.05,NW,320,0.0,0.0,28,0.00,,---,0.00,VWS V14.01,2013-03-04 20:35:00,
2013-03-04 15:40:00,57.4,25.4,30.05,NW,321,0.0,0.0,29,0.00,,---,0.00,VWS V14.01,2013-03-04 20:40:00,
2013-03-04 15:45:00,58.2,25.3,30.06,NW,321,0.0,0.0,28,0.00,,---,0.00,VWS V14.01,2013-03-04 20:45:00,
2013-03-04 15:50:00,57.0,25.1,30.05,NW,321,0.0,0.0,29,0.00,,---,0.00,VWS V14.01,2013-03-04 20:50:00,
2013-03-04 15:55:00,56.0,24.2,30.05,NW,320,0.0,0.0,29,0.00,,---,0.00,VWS V14.01,2013-03-04 20:55:00,
2013-03-04 16:00:00,55.7,25.5,30.05,NW,321,0.0,0.0,31,0.00,,---,0.00,VWS V14.01,2013-03-04 21:00:00,
2013-03-04 16:05:00,55.5,24.6,30.05,NW,320,0.0,0.0,30,0.00,,---,0.00,VWS V14.01,2013-03-04 21:05:00,
2013-03-04 16:10:00,56.2,25.2,30.05,NW,321,0.0,0.0,30,0.00,,---,0.00,VWS V14.01,2013-03-04 21:10:00,
2013-03-04 16:15:00,55.8,25.6,30.04,NW,320,0.0,0.0,31,0.00,,---,0.00,VWS V14.01,2013-03-04 21:15:00,
2013-03-04 16:20:00,55.1,25.0,30.04,NW,321,0.0,0.0,31,0.00,,---,0.00,VWS V14.01,2013-03-04 21:20:00,
2013-03-04 16:25:00,54.5,25.3,30.04,NW,321,0.0,0.0,32,0.00,,---,0.00,VWS V14.01,2013-03-04 21:25:00,
2013-03-04 16:30:00,53.9,24.7,30.03,NW,320,0.0,0.0,32,0.00,,---,0.00,VWS V14.01,2013-03-04 21:30:00,
2013-03-04 16:35:00,53.6,24.5,30.03,NW,321,0.0,0.0,32,0.00,,---,0.00,VWS V14.01,2013-03-04 21:35:00,
2013-03-04 16:40:00,53.3,25.0,30.03,NW,320,0.0,0.0,33,0.00,,---,0.00,VWS V14.01,2013-03-04 21:40:00,
2013-03-04 16:45:00,53.4,25.0,30.03,NW,320,0.0,0.0,33,0.00,,---,0.00,VWS V14.01,2013-03-04 21:45:00,
2013-03-04 16:50:00,54.3,25.8,30.03,NW,321,0.0,0.0,33,0.00,,---,0.00,VWS V14.01,2013-03-04 21:50:00,
2013-03-04 16:55:00,55.2,26.6,30.03,NW,320,0.0,0.0,33,0.00,,---,0.00,VWS V14.01,2013-03-04 21:55:00,
2013-03-04 17:00:00,61.2,25.1,30.05,NW,321,0.0,0.0,25,0.00,,---,0.00,VWS V14.01,2013-03-04 22:00:00,
2013-03-04 17:01:00,55.2,26.6,30.02,NW,320,0.0,0.0,33,0.00,,---,0.00,VWS V14.01,2013-03-04 22:01:00,
2013-03-04 17:05:00,58.2,25.3,30.05,NW,320,0.0,0.0,28,0.00,,---,0.00,VWS V14.01,2013-03-04 22:05:00,
2013-03-04 17:06:00,55.5,26.1,30.02,NW,320,0.0,0.0,32,0.00,,---,0.00,VWS V14.01,2013-03-04 22:06:00,
2013-03-04 17:10:00,57.2,25.2,30.05,NW,321,0.0,0.0,29,0.00,,---,0.00,VWS V14.01,2013-03-04 22:10:00,
2013-03-04 17:11:00,55.6,26.2,30.01,NW,321,0.0,0.0,32,0.00,,---,0.00,VWS V14.01,2013-03-04 22:11:00,
2013-03-04 17:15:00,57.9,25.9,30.06,NW,321,0.0,0.0,29,0.00,,---,0.00,VWS V14.01,2013-03-04 22:15:00,
2013-03-04 17:16:00,54.7,25.4,30.02,NW,321,0.0,0.0,32,0.00,,---,0.00,VWS V14.01,2013-03-04 22:16:00,
2013-03-04 17:20:00,57.6,24.8,30.05,NW,320,0.0,0.0,28,0.00,,---,0.00,VWS V14.01,2013-03-04 22:20:00,
2013-03-04 17:21:00,54.2,25.7,30.02,NW,320,0.0,0.0,33,0.00,,---,0.00,VWS V14.01,2013-03-04 22:21:00,
2013-03-04 17:25:00,56.1,24.3,30.05,NW,320,0.0,0.0,29,0.00,,---,0.00,VWS V14.01,2013-03-04 22:25:00,
2013-03-04 17:26:00,53.9,25.5,30.01,NW,321,0.0,0.0,33,0.00,,---,0.00,VWS V14.01,2013-03-04 22:26:00,
2013-03-04 17:30:00,55.7,24.8,30.05,NW,320,0.0,0.0,30,0.00,,---,0.00,VWS V14.01,2013-03-04 22:30:00,
2013-03-04 17:31:00,53.4,25.8,30.01,NW,320,0.0,0.0,34,0.00,,---,0.00,VWS V14.01,2013-03-04 22:31:00,
2013-03-04 17:35:00,55.5,25.4,30.05,NW,321,0.0,0.0,31,0.00,,---,0.00,VWS V14.01,2013-03-04 22:35:00,
2013-03-04 17:36:00,53.0,25.4,30.02,NW,320,0.0,0.0,34,0.00,,---,0.00,VWS V14.01,2013-03-04 22:36:00,
2013-03-04 17:40:00,55.9,25.7,30.05,NW,320,0.0,0.0,31,0.00,,---,0.00,VWS V14.01,2013-03-04 22:40:00,
2013-03-04 17:41:00,52.8,25.9,30.01,NW,320,0.0,0.0,35,0.00,,---,0.00,VWS V14.01,2013-03-04 22:41:00,
2013-03-04 17:45:00,56.0,25.0,30.05,NW,321,0.0,0.0,30,0.00,,---,0.00,VWS V14.01,2013-03-04 22:45:00,
2013-03-04 17:46:00,52.4,26.2,30.01,NW,320,0.0,0.0,36,0.00,,---,0.00,VWS V14.01,2013-03-04 22:46:00,
2013-03-04 17:50:00,55.4,25.3,30.04,NW,321,0.0,0.0,31,0.00,,---,0.00,VWS V14.01,2013-03-04 22:50:00,
2013-03-04 17:51:00,52.4,26.9,30.01,NW,321,0.0,0.0,37,0.00,,---,0.00,VWS V14.01,2013-03-04 22:51:00,
2013-03-04 17:55:00,54.7,25.4,30.04,NW,321,0.0,0.0,32,0.00,,---,0.00,VWS V14.01,2013-03-04 22:55:00,
2013-03-04 17:56:00,52.4,29.4,30.01,NW,320,0.0,0.0,41,0.00,,---,0.00,VWS V14.01,2013-03-04 22:56:00,
2013-03-04 18:00:00,54.1,24.2,30.04,NW,320,0.0,0.0,31,0.00,,---,0.00,VWS V14.01,2013-03-04 23:00:00,
2013-03-04 18:01:00,52.2,29.2,30.01,NW,321,0.0,0.0,41,0.00,,---,0.00,VWS V14.01,2013-03-04 23:01:00,
2013-03-04 18:05:00,53.6,24.5,30.03,NW,320,0.0,0.0,32,0.00,,---,0.00,VWS V14.01,2013-03-04 23:05:00,
2013-03-04 18:06:00,52.0,30.2,30.01,NW,320,0.0,0.0,43,0.00,,---,0.00,VWS V14.01,2013-03-04 23:06:00,
2013-03-04 18:10:00,53.3,25.0,30.03,NW,321,0.0,0.0,33,0.00,,---,0.00,VWS V14.01,2013-03-04 23:10:00,
2013-03-04 18:11:00,51.7,30.5,30.00,NW,320,0.0,0.0,44,0.00,,---,0.00,VWS V14.01,2013-03-04 23:11:00,
2013-03-04 18:15:00,53.3,25.0,30.03,NW,320,0.0,0.0,33,0.00,,---,0.00,VWS V14.01,2013-03-04 23:15:00,
2013-03-04 18:16:00,51.3,30.7,30.01,NW,321,0.0,0.0,45,0.00,,---,0.00,VWS V14.01,2013-03-04 23:16:00,
2013-03-04 18:20:00,53.8,26.1,30.03,NW,320,0.0,0.0,34,0.00,,---,0.00,VWS V14.01,2013-03-04 23:20:00,
2013-03-04 18:21:00,50.9,30.3,30.00,NW,321,0.0,0.0,45,0.00,,---,0.00,VWS V14.01,2013-03-04 23:21:00,
2013-03-04 18:25:00,54.9,26.4,30.03,NW,320,0.0,0.0,33,0.00,,---,0.00,VWS V14.01,2013-03-04 23:25:00,
2013-03-04 18:26:00,50.6,30.1,30.00,NW,321,0.0,0.0,45,0.00,,---,0.00,VWS V14.01,2013-03-04 23:26:00,
2013-03-04 18:30:00,55.2,25.1,30.02,NW,321,0.0,0.0,31,0.00,,---,0.00,VWS V14.01,2013-03-04 23:30:00,
2013-03-04 18:31:00,50.2,29.7,30.00,NW,321,0.0,0.0,45,0.00,,---,0.00,VWS V14.01,2013-03-04 23:31:00,
2013-03-04 18:35:00,55.4,26.8,30.02,NW,321,0.0,0.0,33,0.00,,---,0.00,VWS V14.01,2013-03-04 23:35:00,
2013-03-04 18:36:00,49.8,30.4,30.00,NW,321,0.0,0.0,47,0.00,,---,0.00,VWS V14.01,2013-03-04 23:36:00,
2013-03-04 18:40:00,55.7,26.3,30.02,NW,320,0.0,0.0,32,0.00,,---,0.00,VWS V14.01,2013-03-04 23:40:00,
2013-03-04 18:41:00,49.5,30.1,30.00,NW,320,0.0,0.0,47,0.00,,---,0.00,VWS V14.01,2013-03-04 23:41:00,
2013-03-04 18:45:00,55.1,25.0,30.01,NW,320,0.0,0.0,31,0.00,,---,0.00,VWS V14.01,2013-03-04 23:45:00,
2013-03-04 18:46:00,49.1,30.3,30.00,NW,320,0.0,0.0,48,0.00,,---,0.00,VWS V14.01,2013-03-04 23:46:00,
2013-03-04 18:50:00,54.4,25.2,30.02,NW,321,0.0,0.0,32,0.00,,---,0.00,VWS V14.01,2013-03-04 23:50:00,
2013-03-04 18:51:00,48.8,30.5,30.00,NW,321,0.0,0.0,49,0.00,,---,0.00,VWS V14.01,2013-03-04 23:51:00,
2013-03-04 18:55:00,54.0,25.6,30.01,NW,320,0.0,0.0,33,0.00,,---,0.00,VWS V14.01,2013-03-04 23:55:00,
2013-03-04 18:56:00,48.5,30.7,29.99,NW,320,0.0,0.0,50,0.00,,---,0.00,VWS V14.01,2013-03-04 23:56:00,
2013-03-04 19:00:00,53.6,25.9,30.01,NW,321,0.0,0.0,34,0.00,,---,0.00,VWS V14.01,2013-03-05 00:00:00,
2013-03-04 19:01:00,48.1,29.4,29.99,NW,320,0.0,0.0,48,0.00,,---,0.00,VWS V14.01,2013-03-05 00:01:00,
2013-03-04 19:05:00,53.1,25.5,30.01,NW,320,0.0,0.0,34,0.00,,---,0.00,VWS V14.01,2013-03-05 00:05:00,
2013-03-04 19:06:00,47.9,29.2,29.98,NW,321,0.0,0.0,48,0.00,,---,0.00,VWS V14.01,2013-03-05 00:06:00,
2013-03-04 19:10:00,52.9,26.0,30.02,NW,320,0.0,0.0,35,0.00,,---,0.00,VWS V14.01,2013-03-05 00:10:00,
2013-03-04 19:11:00,47.7,28.5,29.98,NW,321,0.0,0.0,47,0.00,,---,0.00,VWS V14.01,2013-03-05 00:11:00,
2013-03-04 19:15:00,52.5,26.3,30.01,NW,320,0.0,0.0,36,0.00,,---,0.00,VWS V14.01,2013-03-05 00:15:00,
2013-03-04 19:16:00,47.6,28.9,29.98,NW,320,0.0,0.0,48,0.00,,---,0.00,VWS V14.01,2013-03-05 00:16:00,
2013-03-04 19:20:00,52.4,26.2,30.01,NW,320,0.0,0.0,36,0.00,,---,0.00,VWS V14.01,2013-03-05 00:20:00,
2013-03-04 19:21:00,47.6,28.4,29.99,NW,320,0.0,0.0,47,0.00,,---,0.00,VWS V14.01,2013-03-05 00:21:00,
2013-03-04 19:25:00,52.3,28.7,30.01,NW,321,0.0,0.0,40,0.00,,---,0.00,VWS V14.01,2013-03-05 00:25:00,
2013-03-04 19:26:00,48.0,28.2,29.99,NW,320,0.0,0.0,46,0.00,,---,0.00,VWS V14.01,2013-03-05 00:26:00,
2013-03-04 19:30:00,52.3,29.3,30.01,NW,320,0.0,0.0,41,0.00,,---,0.00,VWS V14.01,2013-03-05 00:30:00,
2013-03-04 19:31:00,48.1,29.4,29.99,NW,321,0.0,0.0,48,0.00,,---,0.00,VWS V14.01,2013-03-05 00:31:00,
2013-03-04 19:35:00,52.1,30.3,30.01,NW,320,0.0,0.0,43,0.00,,---,0.00,VWS V14.01,2013-03-05 00:35:00,
2013-03-04 19:36:00,48.0,30.3,29.99,NW,320,0.0,0.0,50,0.00,,---,0.00,VWS V14.01,2013-03-05 00:36:00,
2013-03-04 19:40:00,51.8,30.0,30.00,NW,320,0.0,0.0,43,0.00,,---,0.00,VWS V14.01,2013-03-05 00:40:00,
2013-03-04 19:41:00,47.9,30.7,30.00,NW,320,0.0,0.0,51,0.00,,---,0.00,VWS V14.01,2013-03-05 00:41:00,
2013-03-04 19:45:00,51.5,29.8,30.00,NW,321,0.0,0.0,43,0.00,,---,0.00,VWS V14.01,2013-03-05 00:45:00,
2013-03-04 19:46:00,47.6,31.3,30.00,NW,320,0.0,0.0,53,0.00,,---,0.00,VWS V14.01,2013-03-05 00:46:00,
2013-03-04 19:50:00,51.2,30.6,30.01,NW,320,0.0,0.0,45,0.00,,---,0.00,VWS V14.01,2013-03-05 00:50:00,
2013-03-04 19:52:00,47.2,30.0,30.00,NW,320,0.0,0.0,51,0.00,,---,0.00,VWS V14.01,2013-03-05 00:52:00,
2013-03-04 19:55:00,50.8,30.2,30.00,NW,320,0.0,0.0,45,0.00,,---,0.00,VWS V14.01,2013-03-05 00:55:00,
2013-03-04 19:57:00,47.0,32.1,30.00,NW,320,0.0,0.0,56,0.00,,---,0.00,VWS V14.01,2013-03-05 00:57:00,
2013-03-04 20:00:00,50.4,30.4,30.00,NW,320,0.0,0.0,46,0.00,,---,0.00,VWS V14.01,2013-03-05 01:00:00,
2013-03-04 20:02:00,46.7,32.3,30.00,NW,320,0.0,0.0,57,0.00,,---,0.00,VWS V14.01,2013-03-05 01:02:00,
2013-03-04 20:05:00,50.0,30.0,30.00,NW,321,0.0,0.0,46,0.00,,---,0.00,VWS V14.01,2013-03-05 01:05:00,
2013-03-04 20:07:00,46.3,31.5,29.99,NW,320,0.0,0.0,56,0.00,,---,0.00,VWS V14.01,2013-03-05 01:07:00,
2013-03-04 20:10:00,49.7,30.8,30.00,NW,321,0.0,0.0,48,0.00,,---,0.00,VWS V14.01,2013-03-05 01:10:00,
2013-03-04 20:12:00,46.1,30.9,29.99,NW,320,0.0,0.0,55,0.00,,---,0.00,VWS V14.01,2013-03-05 01:12:00,
2013-03-04 20:15:00,49.3,29.4,30.00,NW,320,0.0,0.0,46,0.00,,---,0.00,VWS V14.01,2013-03-05 01:15:00,
2013-03-04 20:17:00,46.1,31.7,29.99,NW,320,0.0,0.0,57,0.00,,---,0.00,VWS V14.01,2013-03-05 01:17:00,
2013-03-04 20:20:00,49.0,30.7,30.00,NW,321,0.0,0.0,49,0.00,,---,0.00,VWS V14.01,2013-03-05 01:20:00,
2013-03-04 20:22:00,45.9,32.8,29.99,NW,320,0.0,0.0,60,0.00,,---,0.00,VWS V14.01,2013-03-05 01:22:00,
2013-03-04 20:25:00,48.7,29.9,30.00,NW,320,0.0,0.0,48,0.00,,---,0.00,VWS V14.01,2013-03-05 01:25:00,
2013-03-04 20:27:00,45.7,32.6,29.99,NW,320,0.0,0.0,60,0.00,,---,0.00,VWS V14.01,2013-03-05 01:27:00,
2013-03-04 20:30:00,48.3,30.5,29.99,NW,320,0.0,0.0,50,0.00,,---,0.00,VWS V14.01,2013-03-05 01:30:00,
2013-03-04 20:32:00,45.6,32.9,30.00,NW,321,0.0,0.0,61,0.00,,---,0.00,VWS V14.01,2013-03-05 01:32:00,
2013-03-04 20:35:00,48.0,28.8,29.99,NW,321,0.0,0.0,47,0.00,,---,0.00,VWS V14.01,2013-03-05 01:35:00,
2013-03-04 20:37:00,45.4,32.3,29.99,NW,320,0.0,0.0,60,0.00,,---,0.00,VWS V14.01,2013-03-05 01:37:00,
2013-03-04 20:40:00,47.8,29.1,29.99,NW,321,0.0,0.0,48,0.00,,---,0.00,VWS V14.01,2013-03-05 01:40:00,
2013-03-04 20:42:00,45.1,32.5,29.99,NW,321,0.0,0.0,61,0.00,,---,0.00,VWS V14.01,2013-03-05 01:42:00,
2013-03-04 20:45:00,47.6,28.4,29.98,NW,320,0.0,0.0,47,0.00,,---,0.00,VWS V14.01,2013-03-05 01:45:00,
2013-03-04 20:47:00,44.8,32.6,29.99,NW,320,0.0,0.0,62,0.00,,---,0.00,VWS V14.01,2013-03-05 01:47:00,
2013-03-04 20:50:00,47.6,28.4,29.99,NW,320,0.0,0.0,47,0.00,,---,0.00,VWS V14.01,2013-03-05 01:50:00,
2013-03-04 20:52:00,44.5,32.7,29.99,NW,320,0.0,0.0,63,0.00,,---,0.00,VWS V14.01,2013-03-05 01:52:00,
2013-03-04 20:55:00,47.8,28.0,29.99,NW,321,0.0,0.0,46,0.00,,---,0.00,VWS V14.01,2013-03-05 01:55:00,
2013-03-04 20:57:00,44.3,32.1,29.99,NW,320,0.0,0.0,62,0.00,,---,0.00,VWS V14.01,2013-03-05 01:57:00,
2013-03-04 21:00:00,48.1,28.3,29.99,NW,321,0.0,0.0,46,0.00,,---,0.00,VWS V14.01,2013-03-05 02:00:00,
2013-03-04 21:02:00,44.1,32.7,30.00,NW,320,0.0,0.0,64,0.00,,---,0.00,VWS V14.01,2013-03-05 02:02:00,
2013-03-04 21:05:00,48.1,30.4,29.99,NW,320,0.0,0.0,50,0.00,,---,0.00,VWS V14.01,2013-03-05 02:05:00,
2013-03-04 21:07:00,43.9,32.1,30.00,NW,320,0.0,0.0,63,0.00,,---,0.00,VWS V14.01,2013-03-05 02:07:00,
2013-03-04 21:10:00,48.0,30.8,29.99,NW,320,0.0,0.0,51,0.00,,---,0.00,VWS V14.01,2013-03-05 02:10:00,
2013-03-04 21:12:00,43.6,31.9,30.00,NW,320,0.0,0.0,63,0.00,,---,0.00,VWS V14.01,2013-03-05 02:12:00,
2013-03-04 21:15:00,47.7,30.0,30.00,NW,321,0.0,0.0,50,0.00,,---,0.00,VWS V14.01,2013-03-05 02:15:00,
2013-03-04 21:17:00,43.4,32.4,30.00,NW,321,0.0,0.0,65,0.00,,---,0.00,VWS V14.01,2013-03-05 02:17:00,
2013-03-04 21:20:00,47.4,31.1,30.00,NW,321,0.0,0.0,53,0.00,,---,0.00,VWS V14.01,2013-03-05 02:20:00,
2013-03-04 21:22:00,43.1,31.8,30.00,NW,320,0.0,0.0,64,0.00,,---,0.00,VWS V14.01,2013-03-05 02:22:00,
2013-03-04 21:25:00,47.1,29.9,29.99,NW,320,0.0,0.0,51,0.00,,---,0.00,VWS V14.01,2013-03-05 02:25:00,
2013-03-04 21:27:00,42.7,31.8,30.00,NW,320,0.0,0.0,65,0.00,,---,0.00,VWS V14.01,2013-03-05 02:27:00,
2013-03-04 21:30:00,46.9,32.0,30.00,NW,320,0.0,0.0,56,0.00,,---,0.00,VWS V14.01,2013-03-05 02:30:00,
2013-03-04 21:32:00,42.4,31.5,30.01,NW,320,0.0,0.0,65,0.00,,---,0.00,VWS V14.01,2013-03-05 02:32:00,
2013-03-04 21:35:00,46.5,31.2,30.00,NW,321,0.0,0.0,55,0.00,,---,0.00,VWS V14.01,2013-03-05 02:35:00,
2013-03-04 21:37:00,42.2,32.4,30.01,NW,321,0.0,0.0,68,0.00,,---,0.00,VWS V14.01,2013-03-05 02:37:00,
2013-03-04 21:40:00,46.2,30.9,30.00,NW,321,0.0,0.0,55,0.00,,---,0.00,VWS V14.01,2013-03-05 02:40:00,
2013-03-04 21:42:00,41.9,32.1,30.01,NW,321,0.0,0.0,68,0.00,,---,0.00,VWS V14.01,2013-03-05 02:42:00,
2013-03-04 21:45:00,46.1,31.3,29.99,NW,320,0.0,0.0,56,0.00,,---,0.00,VWS V14.01,2013-03-05 02:45:00,
2013-03-04 21:47:00,41.5,32.1,30.02,NW,321,0.0,0.0,69,0.00,,---,0.00,VWS V14.01,2013-03-05 02:47:00,
2013-03-04 21:50:00,46.0,32.5,29.99,NW,321,0.0,0.0,59,0.00,,---,0.00,VWS V14.01,2013-03-05 02:50:00,
2013-03-04 21:52:00,41.2,32.9,30.02,NW,321,0.0,0.0,72,0.00,,---,0.00,VWS V14.01,2013-03-05 02:52:00,
2013-03-04 21:55:00,45.8,32.7,29.99,NW,321,0.0,0.0,60,0.00,,---,0.00,VWS V14.01,2013-03-05 02:55:00,
2013-03-04 21:57:00,41.0,32.3,30.02,NW,320,0.0,0.0,71,0.00,,---,0.00,VWS V14.01,2013-03-05 02:57:00,
2013-03-04 22:00:00,45.7,32.6,29.99,NW,320,0.0,0.0,60,0.00,,---,0.00,VWS V14.01,2013-03-05 03:00:00,
2013-03-04 22:02:00,40.6,32.3,30.02,NW,319,0.0,0.0,72,0.00,,---,0.00,VWS V14.01,2013-03-05 03:02:00,
2013-03-04 22:05:00,45.5,32.8,30.00,NW,321,0.0,0.0,61,0.00,,---,0.00,VWS V14.01,2013-03-05 03:05:00,
2013-03-04 22:07:00,40.4,32.1,30.02,NW,319,0.0,0.0,72,0.00,,---,0.00,VWS V14.01,2013-03-05 03:07:00,
2013-03-04 22:10:00,45.3,33.1,29.99,NW,321,0.0,0.0,62,0.00,,---,0.00,VWS V14.01,2013-03-05 03:10:00,
2013-03-04 22:12:00,40.2,31.9,30.02,NW,321,0.0,0.0,72,0.00,,---,0.00,VWS V14.01,2013-03-05 03:12:00,
2013-03-04 22:15:00,45.0,32.4,29.99,NW,321,0.0,0.0,61,0.00,,---,0.00,VWS V14.01,2013-03-05 03:15:00,
2013-03-04 22:17:00,40.0,31.7,30.02,NW,319,0.0,0.0,72,0.00,,---,0.00,VWS V14.01,2013-03-05 03:17:00,
2013-03-04 22:20:00,44.8,33.0,29.99,NW,321,0.0,0.0,63,0.00,,---,0.00,VWS V14.01,2013-03-05 03:20:00,
2013-03-04 22:22:00,39.9,31.6,30.02,NW,319,0.0,0.0,72,0.00,,---,0.00,VWS V14.01,2013-03-05 03:22:00,
2013-03-04 22:25:00,44.4,32.2,29.99,NW,321,0.0,0.0,62,0.00,,---,0.00,VWS V14.01,2013-03-05 03:25:00,
2013-03-04 22:27:00,39.7,31.8,30.01,NW,319,0.0,0.0,73,0.00,,---,0.00,VWS V14.01,2013-03-05 03:27:00,
2013-03-04 22:30:00,44.2,32.8,29.99,NW,321,0.0,0.0,64,0.00,,---,0.00,VWS V14.01,2013-03-05 03:30:00,
2013-03-04 22:32:00,39.7,31.8,30.01,NW,321,0.0,0.0,73,0.00,,---,0.00,VWS V14.01,2013-03-05 03:32:00,
2013-03-04 22:35:00,44.1,32.3,30.00,NW,320,0.0,0.0,63,0.00,,---,0.00,VWS V14.01,2013-03-05 03:35:00,
2013-03-04 22:37:00,39.6,32.0,30.02,NW,319,0.0,0.0,74,0.00,,---,0.00,VWS V14.01,2013-03-05 03:37:00,
2013-03-04 22:40:00,43.8,32.0,30.00,NW,321,0.0,0.0,63,0.00,,---,0.00,VWS V14.01,2013-03-05 03:40:00,
2013-03-04 22:42:00,39.6,32.0,30.02,NW,319,0.0,0.0,74,0.00,,---,0.00,VWS V14.01,2013-03-05 03:42:00,
2013-03-04 22:45:00,43.6,32.2,30.00,NW,321,0.0,0.0,64,0.00,,---,0.00,VWS V14.01,2013-03-05 03:45:00,
2013-03-04 22:47:00,39.5,31.9,30.02,NW,319,0.0,0.0,74,0.00,,---,0.00,VWS V14.01,2013-03-05 03:47:00,
2013-03-04 22:50:00,43.3,32.3,30.00,NW,321,0.0,0.0,65,0.00,,---,0.00,VWS V14.01,2013-03-05 03:50:00,
2013-03-04 22:52:00,39.4,32.2,30.02,NW,319,0.0,0.0,75,0.00,,---,0.00,VWS V14.01,2013-03-05 03:52:00,
2013-03-04 22:55:00,42.9,31.6,30.00,NW,320,0.0,0.0,64,0.00,,---,0.00,VWS V14.01,2013-03-05 03:55:00,
2013-03-04 22:57:00,39.3,32.0,30.03,NW,319,0.0,0.0,75,0.00,,---,0.00,VWS V14.01,2013-03-05 03:57:00,
2013-03-04 23:00:00,42.6,31.7,30.00,NW,320,0.0,0.0,65,0.00,,---,0.00,VWS V14.01,2013-03-05 04:00:00,
2013-03-04 23:02:00,39.1,31.9,30.03,NW,319,0.0,0.0,75,0.00,,---,0.00,VWS V14.01,2013-03-05 04:02:00,
2013-03-04 23:05:00,42.3,31.4,30.01,NW,320,0.0,0.0,65,0.00,,---,0.00,VWS V14.01,2013-03-05 04:05:00,
2013-03-04 23:08:00,38.9,31.7,30.03,NW,319,0.0,0.0,75,0.00,,---,0.00,VWS V14.01,2013-03-05 04:08:00,
2013-03-04 23:10:00,42.1,32.3,30.01,NW,321,0.0,0.0,68,0.00,,---,0.00,VWS V14.01,2013-03-05 04:10:00,
2013-03-04 23:13:00,38.8,32.2,30.03,NW,319,0.0,0.0,77,0.00,,---,0.00,VWS V14.01,2013-03-05 04:13:00,
2013-03-04 23:15:00,41.8,32.4,30.01,NW,320,0.0,0.0,69,0.00,,---,0.00,VWS V14.01,2013-03-05 04:15:00,
2013-03-04 23:18:00,38.9,32.3,30.03,NW,319,0.0,0.0,77,0.00,,---,0.00,VWS V14.01,2013-03-05 04:18:00,
2013-03-04 23:20:00,41.3,31.9,30.02,NW,320,0.0,0.0,69,0.00,,---,0.00,VWS V14.01,2013-03-05 04:20:00,
2013-03-04 23:23:00,39.0,32.4,30.03,NW,319,0.0,0.0,77,0.00,,---,0.00,VWS V14.01,2013-03-05 04:23:00,
2013-03-04 23:25:00,41.1,32.8,30.02,NW,321,0.0,0.0,72,0.00,,---,0.00,VWS V14.01,2013-03-05 04:25:00,
2013-03-04 23:28:00,39.1,32.5,30.03,NW,319,0.0,0.0,77,0.00,,---,0.00,VWS V14.01,2013-03-05 04:28:00,
2013-03-04 23:30:00,40.9,32.2,30.02,NW,320,0.0,0.0,71,0.00,,---,0.00,VWS V14.01,2013-03-05 04:30:00,
2013-03-04 23:33:00,39.4,32.8,30.02,NW,319,0.0,0.0,77,0.00,,---,0.00,VWS V14.01,2013-03-05 04:33:00,
2013-03-04 23:35:00,39.0,31.8,30.03,NW,319,0.0,0.0,75,0.00,,---,0.00,VWS V14.01,2013-03-05 04:35:00,
2013-03-04 23:38:00,39.6,33.3,30.02,NW,319,0.0,0.0,78,0.00,,---,0.00,VWS V14.01,2013-03-05 04:38:00,
2013-03-04 23:40:00,40.3,32.0,30.02,NW,319,0.0,0.0,72,0.00,,---,0.00,VWS V14.01,2013-03-05 04:40:00,
2013-03-04 23:43:00,39.8,33.2,30.02,NW,321,0.0,0.0,77,0.00,,---,0.00,VWS V14.01,2013-03-05 04:43:00,
2013-03-04 23:45:00,40.1,31.8,30.02,NW,319,0.0,0.0,72,0.00,,---,0.00,VWS V14.01,2013-03-05 04:45:00,
2013-03-04 23:48:00,40.0,32.7,30.02,NW,320,0.0,0.0,75,0.00,,---,0.00,VWS V14.01,2013-03-05 04:48:00,
2013-03-04 23:50:00,40.0,32.1,30.02,NW,319,0.0,0.0,73,0.00,,---,0.00,VWS V14.01,2013-03-05 04:50:00,
2013-03-04 23:53:00,40.3,32.7,30.02,NW,320,0.0,0.0,74,0.00,,---,0.00,VWS V14.01,2013-03-05 04:53:00,
2013-03-04 23:55:00,39.8,31.5,30.02,NW,319,0.0,0.0,72,0.00,,---,0.00,VWS V14.01,2013-03-05 04:55:00,
2013-03-04 23:58:00,40.6,33.3,30.01,NW,319,0.0,0.0,75,0.00,,---,0.00,VWS V14.01,2013-03-05 04:58:00,